createdAt,value
2023-04-13T00:01:25.022Z,20.20
2023-04-13T00:03:55.409Z,20.20
2023-04-13T00:06:26.557Z,20.20
2023-04-13T00:08:57.576Z,20.30
2023-04-13T00:11:29.926Z,20.30
2023-04-13T00:14:00.649Z,20.40
2023-04-13T00:16:33.205Z,20.40
2023-04-13T00:19:03.881Z,20.50
2023-04-13T00:21:35.587Z,20.50
2023-04-13T00:24:05.952Z,20.50
2023-04-13T00:26:36.289Z,20.50
2023-04-13T00:29:06.538Z,20.60
2023-04-13T00:31:37.065Z,20.60
2023-04-13T00:34:08.671Z,20.60
2023-04-13T00:36:39.632Z,20.60
2023-04-13T00:39:10.147Z,20.70
2023-04-13T00:41:40.664Z,20.70
2023-04-13T00:44:11.553Z,20.70
2023-04-13T00:46:44.240Z,20.80
2023-04-13T00:49:16.192Z,20.80
2023-04-13T00:51:48.397Z,20.80
2023-04-13T00:54:19.981Z,20.80
2023-04-13T00:56:50.977Z,20.80
2023-04-13T00:59:22.720Z,20.90
2023-04-13T01:01:58.064Z,20.90
2023-04-13T01:04:29.420Z,20.90
2023-04-13T01:07:24.149Z,20.90
2023-04-13T01:10:08.760Z,21.00
2023-04-13T01:12:44.168Z,21.00
2023-04-13T01:15:17.359Z,21.00
2023-04-13T01:17:58.764Z,21.00
2023-04-13T01:20:31.594Z,21.00
2023-04-13T01:23:04.836Z,21.10
2023-04-13T01:25:58.383Z,21.10
2023-04-13T01:28:30.417Z,21.10
2023-04-13T01:31:03.238Z,21.10
2023-04-13T01:33:35.358Z,21.10
2023-04-13T01:36:06.209Z,21.10
2023-04-13T01:38:37.422Z,21.20
2023-04-13T01:41:08.013Z,21.20
2023-04-13T01:43:39.468Z,21.20
2023-04-13T01:46:17.369Z,21.30
2023-04-13T01:48:58.834Z,21.30
2023-04-13T01:51:35.977Z,21.30
2023-04-13T01:54:18.843Z,21.30
2023-04-13T01:56:50.182Z,21.40
2023-04-13T01:59:21.956Z,21.40
2023-04-13T02:01:53.708Z,21.40
2023-04-13T02:04:24.406Z,21.40
2023-04-13T02:06:55.517Z,21.40
2023-04-13T02:09:26.977Z,21.50
2023-04-13T02:11:57.892Z,21.40
2023-04-13T02:14:29.028Z,21.50
2023-04-13T02:16:59.970Z,21.50
2023-04-13T02:19:30.594Z,21.50
2023-04-13T02:22:01.550Z,21.60
2023-04-13T02:24:32.108Z,21.60
2023-04-13T02:27:03.798Z,21.60
2023-04-13T02:29:34.088Z,21.60
2023-04-13T02:32:04.458Z,21.60
2023-04-13T02:34:35.694Z,21.60
2023-04-13T02:37:06.035Z,21.60
2023-04-13T02:39:36.376Z,21.70
2023-04-13T02:42:06.957Z,21.70
2023-04-13T02:44:37.731Z,21.70
2023-04-13T02:47:08.800Z,21.70
2023-04-13T02:49:39.111Z,21.70
2023-04-13T02:52:09.326Z,21.80
2023-04-13T02:54:39.560Z,21.80
2023-04-13T02:57:12.261Z,21.80
2023-04-13T02:59:43.727Z,21.80
2023-04-13T03:02:14.388Z,21.80
2023-04-13T03:04:45.324Z,21.80
2023-04-13T03:07:16.163Z,21.80
2023-04-13T03:09:46.621Z,21.80
2023-04-13T03:12:16.973Z,21.90
2023-04-13T03:14:47.299Z,21.80
2023-04-13T03:17:19.786Z,21.90
2023-04-13T03:19:51.502Z,21.80
2023-04-13T03:22:21.833Z,21.90
2023-04-13T03:24:52.846Z,21.90
2023-04-13T03:27:24.527Z,21.90
2023-04-13T03:29:54.799Z,21.90
2023-04-13T03:32:25.177Z,21.90
2023-04-13T03:34:55.819Z,21.90
2023-04-13T03:37:31.413Z,22.00
2023-04-13T03:40:02.090Z,21.90
2023-04-13T03:42:33.731Z,22.00
2023-04-13T03:45:03.992Z,22.00
2023-04-13T03:47:34.380Z,22.00
2023-04-13T03:50:05.335Z,22.00
2023-04-13T03:52:35.543Z,22.00
2023-04-13T03:55:06.003Z,22.00
2023-04-13T03:57:36.917Z,22.00
2023-04-13T04:00:09.008Z,22.00
2023-04-13T04:02:39.789Z,22.00
2023-04-13T04:05:10.939Z,22.00
2023-04-13T04:07:41.197Z,22.00
2023-04-13T04:10:12.012Z,22.00
2023-04-13T04:12:42.350Z,22.00
2023-04-13T04:15:13.049Z,22.00
2023-04-13T04:17:43.327Z,22.00
2023-04-13T04:20:13.872Z,22.00
2023-04-13T04:22:46.491Z,22.00
2023-04-13T04:25:23.940Z,22.00
2023-04-13T04:27:59.608Z,22.00
2023-04-13T04:30:31.250Z,22.00
2023-04-13T04:33:01.713Z,22.00
2023-04-13T04:35:35.844Z,22.00
2023-04-13T04:38:06.900Z,22.00
2023-04-13T04:40:39.811Z,22.00
2023-04-13T04:43:09.976Z,22.00
2023-04-13T04:45:43.420Z,21.90
2023-04-13T04:48:14.074Z,21.90
2023-04-13T04:50:47.409Z,21.90
2023-04-13T04:53:17.602Z,21.90
2023-04-13T04:55:48.271Z,21.90
2023-04-13T04:58:18.554Z,21.90
2023-04-13T05:00:49.665Z,21.90
2023-04-13T05:03:20.071Z,21.90
2023-04-13T05:05:50.368Z,21.90
2023-04-13T05:08:26.957Z,21.90
2023-04-13T05:10:57.423Z,22.00
2023-04-13T05:13:27.643Z,22.00
2023-04-13T05:15:57.886Z,21.90
2023-04-13T05:18:29.396Z,22.00
2023-04-13T05:20:59.827Z,22.00
2023-04-13T05:23:30.263Z,21.90
2023-04-13T05:26:00.489Z,22.00
2023-04-13T05:28:30.893Z,22.00
2023-04-13T05:31:12.746Z,22.00
2023-04-13T05:33:43.285Z,22.00
2023-04-13T05:36:13.550Z,22.00
2023-04-13T05:38:44.553Z,22.00
2023-04-13T05:41:14.880Z,22.00
2023-04-13T05:43:47.800Z,22.00
2023-04-13T05:46:18.251Z,22.00
2023-04-13T05:48:48.482Z,22.10
2023-04-13T05:51:18.780Z,22.10
2023-04-13T05:53:49.660Z,22.00
2023-04-13T05:56:19.814Z,22.10
2023-04-13T05:58:50.301Z,22.10
2023-04-13T06:01:21.678Z,22.10
2023-04-13T06:03:52.435Z,22.10
2023-04-13T06:06:22.995Z,22.10
2023-04-13T06:08:54.674Z,22.10
2023-04-13T06:11:26.442Z,22.10
2023-04-13T06:13:58.713Z,22.10
2023-04-13T06:16:30.401Z,22.10
2023-04-13T06:19:01.515Z,22.10
2023-04-13T06:21:32.153Z,22.10
2023-04-13T06:24:02.649Z,22.10
2023-04-13T06:26:33.255Z,22.20
2023-04-13T06:29:04.343Z,22.20
2023-04-13T06:31:34.759Z,22.20
2023-04-13T06:34:05.092Z,22.20
2023-04-13T06:36:35.229Z,22.20
2023-04-13T06:39:06.044Z,22.20
2023-04-13T06:41:36.289Z,22.20
2023-04-13T06:44:07.705Z,22.20
2023-04-13T06:46:37.947Z,22.20
2023-04-13T06:49:08.253Z,22.20
2023-04-13T06:51:38.407Z,22.20
2023-04-13T06:54:08.733Z,22.20
2023-04-13T06:56:38.914Z,22.10
2023-04-13T06:59:09.343Z,22.10
2023-04-13T07:01:39.766Z,22.10
2023-04-13T07:04:10.051Z,22.20
2023-04-13T07:06:40.610Z,22.10
2023-04-13T07:09:10.871Z,22.10
2023-04-13T07:11:41.035Z,22.10
2023-04-13T07:14:11.241Z,22.10
2023-04-13T07:16:41.448Z,22.10
2023-04-13T07:19:11.722Z,22.10
2023-04-13T07:21:42.168Z,22.10
2023-04-13T07:24:12.510Z,22.10
2023-04-13T07:26:43.511Z,22.00
2023-04-13T07:29:15.177Z,22.00
2023-04-13T07:31:45.379Z,22.00
2023-04-13T07:34:15.701Z,22.00
2023-04-13T07:36:46.034Z,22.00
2023-04-13T07:39:16.268Z,22.00
2023-04-13T07:41:48.085Z,22.00
2023-04-13T07:44:19.030Z,22.00
2023-04-13T07:46:49.280Z,22.00
2023-04-13T07:49:20.113Z,22.00
2023-04-13T07:51:50.461Z,22.00
2023-04-13T07:54:20.607Z,22.00
2023-04-13T07:56:50.846Z,21.90
2023-04-13T07:59:21.359Z,22.00
2023-04-13T08:01:51.672Z,21.90
2023-04-13T08:04:22.119Z,22.00
2023-04-13T08:06:52.799Z,21.90
2023-04-13T08:09:23.210Z,21.90
2023-04-13T08:11:53.470Z,21.90
2023-04-13T08:14:23.701Z,21.90
2023-04-13T08:16:53.955Z,22.00
2023-04-13T08:19:24.404Z,22.00
2023-04-13T08:21:54.711Z,22.00
2023-04-13T08:24:25.852Z,22.00
2023-04-13T08:27:00.430Z,22.00
2023-04-13T08:29:31.615Z,22.00
2023-04-13T08:32:02.043Z,22.10
2023-04-13T08:34:32.696Z,22.10
2023-04-13T08:37:02.897Z,22.10
2023-04-13T08:39:33.573Z,22.00
2023-04-13T08:42:05.987Z,22.10
2023-04-13T08:44:37.061Z,22.10
2023-04-13T08:47:07.616Z,22.10
2023-04-13T08:49:40.795Z,22.10
2023-04-13T08:52:15.771Z,22.10
2023-04-13T08:54:47.728Z,22.10
2023-04-13T08:57:19.078Z,22.10
2023-04-13T08:59:52.135Z,22.10
2023-04-13T09:02:28.085Z,22.10
2023-04-13T09:05:02.662Z,22.10
2023-04-13T09:07:36.698Z,22.10
2023-04-13T09:10:08.519Z,22.10
2023-04-13T09:12:39.109Z,22.10
2023-04-13T09:15:10.193Z,22.10
2023-04-13T09:17:40.887Z,22.10
2023-04-13T09:20:24.450Z,22.10
2023-04-13T09:22:55.350Z,22.10
2023-04-13T09:25:31.089Z,22.00
2023-04-13T09:28:02.699Z,22.10
2023-04-13T09:30:33.181Z,22.10
2023-04-13T09:33:13.109Z,22.10
2023-04-13T09:35:43.693Z,22.00
2023-04-13T09:38:19.501Z,22.00
2023-04-13T09:40:55.851Z,22.10
2023-04-13T09:43:36.327Z,22.10
2023-04-13T09:46:13.936Z,22.10
2023-04-13T09:48:44.917Z,22.10
2023-04-13T09:51:15.269Z,22.10
2023-04-13T09:53:51.325Z,22.00
2023-04-13T09:56:22.340Z,22.00
2023-04-13T09:58:53.284Z,22.00
2023-04-13T10:01:24.046Z,22.00
2023-04-13T10:03:55.448Z,22.00
2023-04-13T10:06:26.048Z,22.00
2023-04-13T10:08:56.231Z,22.00
2023-04-13T10:11:28.071Z,22.00
2023-04-13T10:14:04.506Z,22.00
2023-04-13T10:16:50.395Z,22.00
2023-04-13T10:19:24.169Z,21.90
2023-04-13T10:21:55.565Z,21.90
2023-04-13T10:24:27.176Z,21.90
2023-04-13T10:27:02.246Z,21.90
2023-04-13T10:29:34.514Z,21.90
2023-04-13T10:32:05.893Z,21.90
2023-04-13T10:34:39.935Z,21.90
2023-04-13T10:37:21.162Z,21.90
2023-04-13T10:39:52.060Z,21.90
2023-04-13T10:42:22.720Z,21.90
2023-04-13T10:44:55.946Z,21.80
2023-04-13T10:47:27.948Z,21.90
2023-04-13T10:49:58.767Z,21.80
2023-04-13T10:52:30.038Z,21.80
2023-04-13T10:55:00.548Z,21.80
2023-04-13T10:57:36.879Z,21.80
2023-04-13T11:00:29.316Z,21.80
2023-04-13T11:03:04.837Z,21.80
2023-04-13T11:05:35.458Z,21.80
2023-04-13T11:08:06.641Z,21.80
2023-04-13T11:10:37.306Z,21.80
2023-04-13T11:13:08.111Z,21.80
2023-04-13T11:15:38.283Z,21.80
2023-04-13T11:18:09.268Z,21.80
2023-04-13T11:20:41.965Z,21.80
2023-04-13T11:23:20.411Z,21.80
2023-04-13T11:26:02.345Z,21.80
2023-04-13T11:28:45.568Z,21.70
2023-04-13T11:31:15.928Z,21.80
2023-04-13T11:33:51.114Z,21.70
2023-04-13T11:36:22.178Z,21.70
2023-04-13T11:38:54.090Z,21.70
2023-04-13T11:41:24.346Z,21.70
2023-04-13T11:43:55.906Z,21.70
2023-04-13T11:46:29.174Z,21.70
2023-04-13T11:49:01.233Z,21.70
2023-04-13T11:51:33.468Z,21.70
2023-04-13T11:54:04.359Z,21.70
2023-04-13T11:56:34.788Z,21.70
2023-04-13T11:59:05.357Z,21.70
2023-04-13T12:01:36.636Z,21.70
2023-04-13T12:04:15.372Z,21.70
2023-04-13T12:06:51.365Z,21.60
2023-04-13T12:09:26.856Z,21.60
2023-04-13T12:15:10.581Z,21.60
2023-04-13T12:17:50.136Z,21.60
2023-04-13T12:20:27.989Z,21.50
2023-04-13T12:23:05.822Z,21.50
2023-04-13T12:26:18.449Z,21.50
2023-04-13T12:28:56.886Z,21.50
2023-04-13T12:31:27.784Z,21.50
2023-04-13T12:33:58.228Z,21.50
2023-04-13T12:36:33.177Z,21.50
2023-04-13T12:39:03.849Z,21.40
2023-04-13T12:41:34.168Z,21.40
2023-04-13T12:44:04.368Z,21.40
2023-04-13T12:46:34.781Z,21.40
2023-04-13T12:49:05.008Z,21.40
2023-04-13T12:51:35.535Z,21.40
2023-04-13T12:54:10.342Z,21.40
2023-04-13T12:56:40.644Z,21.40
2023-04-13T12:59:11.074Z,21.30
2023-04-13T13:01:41.862Z,21.30
2023-04-13T13:04:12.121Z,21.30
2023-04-13T13:06:42.415Z,21.30
2023-04-13T13:09:12.623Z,21.30
2023-04-13T13:11:43.074Z,21.30
2023-04-13T13:14:13.564Z,21.20
2023-04-13T13:16:43.910Z,21.20
2023-04-13T13:19:14.368Z,21.20
2023-04-13T13:21:45.418Z,21.20
2023-04-13T13:24:15.835Z,21.20
2023-04-13T13:29:25.844Z,21.20
2023-04-13T13:31:56.068Z,21.10
2023-04-13T13:34:26.333Z,21.10
2023-04-13T13:36:56.704Z,21.20
2023-04-13T13:39:27.677Z,21.10
2023-04-13T13:42:00.835Z,21.10
2023-04-13T13:44:31.659Z,21.10
2023-04-13T13:47:02.888Z,21.10
2023-04-13T13:49:33.307Z,21.10
2023-04-13T13:52:03.692Z,21.10
2023-04-13T13:54:33.925Z,21.10
2023-04-13T13:57:04.234Z,21.00
2023-04-13T13:59:34.492Z,21.00
2023-04-13T14:02:04.913Z,21.00
2023-04-13T14:04:36.386Z,21.00
2023-04-13T14:07:06.809Z,21.00
2023-04-13T14:09:37.204Z,20.90
2023-04-13T14:12:07.944Z,21.00
2023-04-13T14:14:38.164Z,20.90
2023-04-13T14:17:08.908Z,20.90
2023-04-13T14:19:39.062Z,20.90
2023-04-13T14:22:09.278Z,20.90
2023-04-13T14:24:39.523Z,20.90
2023-04-13T14:27:09.799Z,20.90
2023-04-13T14:29:39.951Z,20.80
2023-04-13T14:32:10.197Z,20.80
2023-04-13T14:34:40.495Z,20.80
2023-04-13T14:37:11.666Z,20.80
2023-04-13T14:39:42.626Z,20.80
2023-04-13T14:42:14.033Z,20.80
2023-04-13T14:44:44.738Z,20.70
2023-04-13T14:47:15.306Z,20.80
2023-04-13T14:49:45.687Z,20.70
2023-04-13T14:52:16.051Z,20.70
2023-04-13T14:54:46.302Z,20.70
2023-04-13T14:57:17.783Z,20.70
2023-04-13T14:59:47.966Z,20.70
2023-04-13T15:02:18.415Z,20.70
2023-04-13T15:04:49.973Z,20.60
2023-04-13T15:07:20.484Z,20.60
2023-04-13T15:09:50.675Z,20.60
2023-04-13T15:12:20.854Z,20.60
2023-04-13T15:14:52.103Z,20.60
2023-04-13T15:17:23.534Z,20.60
2023-04-13T15:19:53.870Z,20.60
2023-04-13T15:22:24.212Z,20.60
2023-04-13T15:24:54.717Z,20.50
2023-04-13T15:27:29.625Z,20.50
2023-04-13T15:30:04.708Z,20.50
2023-04-13T15:32:38.003Z,20.50
2023-04-13T15:35:09.237Z,20.50
2023-04-13T15:37:39.458Z,20.50
2023-04-13T15:40:11.135Z,20.40
2023-04-13T15:42:41.399Z,20.40
2023-04-13T15:45:12.481Z,20.40
2023-04-13T15:47:43.011Z,20.40
2023-04-13T15:50:13.915Z,20.40
2023-04-13T15:52:44.354Z,20.40
2023-04-13T15:55:14.685Z,20.40
2023-04-13T15:57:45.014Z,20.40
2023-04-13T16:00:16.428Z,20.30
2023-04-13T16:02:46.936Z,20.30
2023-04-13T16:05:18.113Z,20.30
2023-04-13T16:07:48.958Z,20.30
2023-04-13T16:10:20.397Z,20.30
2023-04-13T16:12:51.580Z,20.30
2023-04-13T16:15:22.068Z,20.20
2023-04-13T16:17:52.351Z,20.20
2023-04-13T16:20:23.909Z,20.20
2023-04-13T16:22:56.344Z,20.20
2023-04-13T16:25:26.874Z,20.20
2023-04-13T16:27:57.400Z,20.20
2023-04-13T16:30:27.824Z,20.20
2023-04-13T16:32:58.375Z,20.10
2023-04-13T16:35:28.913Z,20.10
2023-04-13T16:38:00.560Z,20.10
2023-04-13T16:40:31.052Z,20.10
2023-04-13T16:43:02.276Z,20.10
2023-04-13T16:45:33.108Z,20.10
2023-04-13T16:48:03.373Z,20.10
2023-04-13T16:50:33.650Z,20.10
2023-04-13T16:53:03.957Z,20.00
2023-04-13T16:55:34.290Z,20.00
2023-04-13T16:58:04.491Z,20.00
2023-04-13T17:00:35.034Z,20.00
2023-04-13T17:03:05.347Z,20.00
2023-04-13T17:05:35.929Z,20.00
2023-04-13T17:08:10.656Z,20.00
2023-04-13T17:10:41.147Z,20.00
2023-04-13T17:13:11.774Z,20.00
2023-04-13T17:15:42.268Z,19.90
2023-04-13T17:18:13.112Z,19.90
2023-04-13T17:20:43.695Z,19.90
2023-04-13T17:23:14.246Z,19.90
2023-04-13T17:25:44.513Z,19.90
2023-04-13T17:28:14.824Z,19.80
2023-04-13T17:30:45.148Z,19.80
2023-04-13T17:33:16.027Z,19.90
2023-04-13T17:35:46.434Z,19.80
2023-04-13T17:38:19.807Z,19.80
2023-04-13T17:40:50.250Z,19.80
2023-04-13T17:43:20.714Z,19.80
2023-04-13T17:45:51.097Z,19.70
2023-04-13T17:48:21.420Z,19.70
2023-04-13T17:50:51.854Z,19.70
2023-04-13T17:53:22.221Z,19.70
2023-04-13T17:55:52.647Z,19.80
2023-04-13T17:58:23.066Z,19.70
2023-04-13T18:00:53.241Z,19.70
2023-04-13T18:03:23.691Z,19.70
2023-04-13T18:05:53.969Z,19.70
2023-04-13T18:08:24.346Z,19.70
2023-04-13T18:10:56.183Z,19.60
2023-04-13T18:13:29.008Z,19.60
2023-04-13T18:15:59.404Z,19.60
2023-04-13T18:18:29.687Z,19.60
2023-04-13T18:20:59.881Z,19.60
2023-04-13T18:23:30.066Z,19.60
2023-04-13T18:26:00.304Z,19.60
2023-04-13T18:28:38.245Z,19.60
2023-04-13T18:31:08.844Z,19.50
2023-04-13T18:33:39.156Z,19.50
2023-04-13T18:36:09.701Z,19.50
2023-04-13T18:38:39.991Z,19.50
2023-04-13T18:41:10.354Z,19.50
2023-04-13T18:43:41.374Z,19.50
2023-04-13T18:46:11.601Z,19.50
2023-04-13T18:48:42.017Z,19.50
2023-04-13T18:51:13.927Z,19.50
2023-04-13T18:53:44.479Z,19.50
2023-04-13T18:56:14.837Z,19.40
2023-04-13T18:58:46.254Z,19.40
2023-04-13T19:01:23.882Z,19.40
2023-04-13T19:03:55.471Z,19.40
2023-04-13T19:06:26.084Z,19.40
2023-04-13T19:08:56.506Z,19.40
2023-04-13T19:11:29.114Z,19.30
2023-04-13T19:13:59.610Z,19.30
2023-04-13T19:16:30.595Z,19.30
2023-04-13T19:19:00.785Z,19.30
2023-04-13T19:21:30.944Z,19.30
2023-04-13T19:24:01.360Z,19.30
2023-04-13T19:26:32.168Z,19.30
2023-04-13T19:29:02.842Z,19.20
2023-04-13T19:31:36.892Z,19.20
2023-04-13T19:34:11.589Z,19.20
2023-04-13T19:36:42.782Z,19.20
2023-04-13T19:39:13.084Z,19.20
2023-04-13T19:41:44.377Z,19.20
2023-04-13T19:44:17.612Z,19.20
2023-04-13T19:46:48.109Z,19.20
2023-04-13T19:49:18.478Z,19.20
2023-04-13T19:51:48.662Z,19.20
2023-04-13T19:54:19.123Z,19.20
2023-04-13T19:56:49.967Z,19.20
2023-04-13T19:59:20.265Z,19.10
2023-04-13T20:01:50.905Z,19.10
2023-04-13T20:04:21.453Z,19.10
2023-04-13T20:06:51.815Z,19.10
2023-04-13T20:09:22.030Z,19.10
2023-04-13T20:11:52.408Z,19.10
2023-04-13T20:14:23.092Z,19.10
2023-04-13T20:16:53.758Z,19.10
2023-04-13T20:19:26.118Z,19.10
2023-04-13T20:21:56.311Z,19.00
2023-04-13T20:24:26.802Z,19.00
2023-04-13T20:26:56.959Z,19.00
2023-04-13T20:29:29.237Z,19.00
2023-04-13T20:31:59.433Z,19.00
2023-04-13T20:34:29.728Z,19.00
2023-04-13T20:37:00.586Z,19.00
2023-04-13T20:39:34.862Z,19.00
2023-04-13T20:42:07.408Z,19.00
2023-04-13T20:44:39.739Z,18.90
2023-04-13T20:47:14.863Z,18.90
2023-04-13T20:49:51.277Z,18.90
2023-04-13T20:52:21.495Z,18.90
2023-04-13T20:54:53.679Z,18.90
2023-04-13T20:57:24.314Z,18.90
2023-04-13T20:59:54.672Z,18.90
2023-04-13T21:02:25.150Z,18.90
2023-04-13T21:04:55.738Z,19.00
2023-04-13T21:07:25.870Z,19.00
2023-04-13T21:09:56.085Z,19.00
2023-04-13T21:12:27.595Z,19.10
2023-04-13T21:14:58.033Z,19.10
2023-04-13T21:17:28.474Z,19.10
2023-04-13T21:19:58.789Z,19.20
2023-04-13T21:22:29.249Z,19.20
2023-04-13T21:25:00.366Z,19.20
2023-04-13T21:27:30.554Z,19.20
2023-04-13T21:30:02.156Z,19.20
2023-04-13T21:32:32.657Z,19.30
2023-04-13T21:35:03.463Z,19.30
2023-04-13T21:37:33.652Z,19.30
2023-04-13T21:40:04.033Z,19.30
2023-04-13T21:42:34.189Z,19.30
2023-04-13T21:45:04.650Z,19.30
2023-04-13T21:47:34.936Z,19.40
2023-04-13T21:50:05.168Z,19.40
2023-04-13T21:52:35.432Z,19.40
2023-04-13T21:55:05.814Z,19.40
2023-04-13T21:57:36.125Z,19.40
2023-04-13T22:00:06.942Z,19.40
2023-04-13T22:02:37.472Z,19.40
2023-04-13T22:05:09.066Z,19.50
2023-04-13T22:07:43.040Z,19.40
2023-04-13T22:10:14.433Z,19.40
2023-04-13T22:12:44.696Z,19.40
2023-04-13T22:15:15.031Z,19.50
2023-04-13T22:17:45.243Z,19.50
2023-04-13T22:20:15.642Z,19.50
2023-04-13T22:22:45.859Z,19.50
2023-04-13T22:25:16.161Z,19.50
2023-04-13T22:27:46.719Z,19.50
2023-04-13T22:30:17.144Z,19.50
2023-04-13T22:32:47.937Z,19.60
2023-04-13T22:35:18.451Z,19.60
2023-04-13T22:37:48.646Z,19.60
2023-04-13T22:40:19.120Z,19.60
2023-04-13T22:42:49.600Z,19.60
2023-04-13T22:45:20.267Z,19.60
2023-04-13T22:47:55.032Z,19.70
2023-04-13T22:50:25.314Z,19.70
2023-04-13T22:52:55.828Z,19.70
2023-04-13T22:55:26.103Z,19.70
2023-04-13T22:57:56.335Z,19.70
2023-04-13T23:00:26.596Z,19.70
2023-04-13T23:02:57.476Z,19.70
2023-04-13T23:05:27.861Z,19.80
2023-04-13T23:07:58.305Z,19.80
2023-04-13T23:10:28.719Z,19.80
2023-04-13T23:12:59.116Z,19.80
2023-04-13T23:15:29.457Z,19.70
2023-04-13T23:17:59.814Z,19.70
2023-04-13T23:20:30.539Z,19.70
2023-04-13T23:23:00.740Z,19.70
2023-04-13T23:25:31.004Z,19.70
2023-04-13T23:28:01.254Z,19.60
2023-04-13T23:30:31.497Z,19.60
2023-04-13T23:33:02.007Z,19.60
2023-04-13T23:35:32.492Z,19.70
2023-04-13T23:38:03.039Z,19.70
2023-04-13T23:40:33.309Z,19.70
2023-04-13T23:43:03.543Z,19.70
2023-04-13T23:45:34.186Z,19.70
2023-04-13T23:48:04.389Z,19.80
2023-04-13T23:50:34.548Z,19.80
2023-04-13T23:53:05.384Z,19.80
2023-04-13T23:55:35.921Z,19.80
2023-04-13T23:58:06.241Z,19.80
